Data for 06/16/2013

Time Sea-Level Adjusted Pressure Absolute Pressure Temperature Relative Humidity Dew Point   
(mb) (inHg) (mb) (inHg) (C) (F) (%) (C) (F)
00:05 1020 30.12 849 25.07 11.2 52.1 53 2 35.7
00:10 1020 30.12 849 25.07 11 51.7 54 2.1 35.8
00:15 1020 30.12 849 25.07 10.8 51.4 55 2.2 36
00:20 1020 30.12 849 25.07 10.5 50.8 58 2.5 36.6
00:25 1020 30.12 849 25.07 10.1 50.2 58 2.3 36.2
00:30 1020 30.12 849 25.07 10 50.1 59 2.4 36.3
00:35 1020 30.12 849 25.07 10.1 50.2 57 2.1 35.7
00:40 1020 30.12 849 25.07 10.2 50.4 59 2.5 36.5
00:45 1020 30.12 849 25.07 9.7 49.5 60 2.3 36.1
00:50 1020 30.12 849 25.07 9.8 49.6 56 1.4 34.6
00:55 1020 30.12 849 25.07 10.4 50.8 53 1.3 34.3
01:00 1020 30.12 849 25.07 10.5 50.9 54 1.7 35.1
01:05 1020 30.12 850 25.1 10.2 50.4 55 1.7 35.1
01:10 1020 30.12 850 25.1 9.9 49.7 56 1.6 34.8
01:15 1020 30.12 850 25.1 9.9 49.9 53 0.9 33.7
01:20 1020 30.12 850 25.1 10.3 50.6 51 0.7 33.2
01:25 1020 30.12 850 25.1 10.7 51.2 50 0.7 33.2
01:30 1020 30.12 850 25.1 11 51.8 49 0.8 33.4
01:35 1020 30.12 850 25.1 11.1 51.9 49 0.8 33.4
01:40 1020 30.12 850 25.1 11 51.9 49 0.8 33.5
01:45 1020 30.12 850 25.1 10.9 51.7 52 1.4 34.5
01:50 1020 30.12 850 25.1 10.4 50.6 54 1.4 34.5
01:55 1020 30.12 850 25.1 10.1 50.2 53 1 33.9
02:00 1020 30.12 850 25.1 10 50.1 53 1 33.8
02:05 1020 30.12 850 25.1 9.9 49.9 54 1 33.8
02:10 1020 30.12 850 25.1 9.5 49.1 55 1 33.7
02:15 1020 30.12 850 25.1 9.5 49 54 0.6 33
02:20 1020 30.12 850 25.1 9.5 49.1 54 0.6 33
02:25 1020 30.12 850 25.1 9.7 49.4 51 0.1 32.1
02:30 1021 30.15 850 25.1 10.1 50.1 51 0.5 32.9
02:35 1021 30.15 850 25.1 10 49.9 52 0.5 33
02:40 1021 30.15 850 25.1 9.8 49.6 53 0.8 33.4
02:45 1021 30.15 850 25.1 9.4 49 55 0.9 33.6
02:50 1021 30.15 850 25.1 9.2 48.6 56 0.9 33.6
02:55 1021 30.15 850 25.1 9 48.1 56 0.6 33.1
03:00 1021 30.15 850 25.1 9.3 48.7 52 -0.1 31.9
03:05 1021 30.15 850 25.1 9.8 49.6 51 0.1 32.3
03:10 1021 30.15 850 25.1 9.8 49.6 53 0.7 33.3
03:15 1021 30.15 850 25.1 9.5 49.1 56 1.2 34.2
03:20 1021 30.15 850 25.1 9.1 48.3 55 0.6 33
03:25 1021 30.15 850 25.1 9.4 49 51 -0.2 31.6
03:30 1021 30.15 850 25.1 9.7 49.5 55 1.1 34
03:35 1021 30.15 850 25.1 9.2 48.6 57 1.3 34.3
03:40 1021 30.15 850 25.1 8.7 47.7 59 1.2 34.2
03:45 1021 30.15 850 25.1 8.6 47.4 59 1.1 34.1
03:50 1021 30.15 850 25.1 8.6 47.5 58 0.9 33.7
03:55 1021 30.15 850 25.1 9.1 48.4 52 -0.1 31.7
04:00 1021 30.15 850 25.1 9.3 48.7 52 -0 32
04:05 1021 30.15 850 25.1 9.3 48.7 53 0.2 32.3
04:10 1021 30.15 850 25.1 9.1 48.3 53 -0 32
04:15 1021 30.15 850 25.1 9.2 48.6 52 -0.2 31.7
04:20 1021 30.15 850 25.1 9.2 48.6 52 0 32.1
04:25 1021 30.15 850 25.1 9 48.1 54 0.2 32.3
04:30 1021 30.15 850 25.1 8.7 47.7 54 0.1 32.2
04:35 1021 30.15 850 25.1 8.7 47.6 54 -0.1 31.8
04:40 1021 30.15 850 25.1 8.7 47.7 54 -0.1 31.9
04:45 1021 30.15 850 25.1 8.7 47.6 54 0 32.1
04:50 1021 30.15 850 25.1 8.6 47.4 55 0.1 32.1
04:55 1021 30.15 850 25.1 8.6 47.4 54 -0.1 31.9
05:00 1021 30.15 850 25.1 8.8 47.8 54 -0 31.9
05:05 1021 30.15 850 25.1 8.9 48 54 0 32.1
05:10 1021 30.15 850 25.1 9 48.3 53 -0 31.9
05:15 1021 30.15 850 25.1 9.4 48.8 51 -0.2 31.7
05:20 1021 30.15 850 25.1 9.6 49.2 52 0.1 32.2
05:25 1021 30.15 850 25.1 9.5 49.1 52 0.1 32.1
05:30 1021 30.15 850 25.1 9.5 49 54 0.7 33.3
05:35 1021 30.15 850 25.1 9.5 49.2 52 0.3 32.5
05:40 1021 30.15 850 25.1 9.6 49.3 51 0.1 32.2
05:45 1021 30.15 850 25.1 9.7 49.5 51 0.1 32.3
05:50 1021 30.15 850 25.1 9.9 49.8 50 0.1 32.2
05:55 1021 30.15 850 25.1 10.1 50.2 50 0.1 32.2
06:00 1021 30.15 850 25.1 10.3 50.5 50 0.3 32.5
06:05 1021 30.15 850 25.1 10.4 50.6 49 0.1 32.1
06:10 1021 30.15 850 25.1 10.4 50.8 50 0.6 33
06:15 1021 30.15 850 25.1 10.7 51.3 49 0.6 33
06:20 1021 30.15 850 25.1 11.1 51.9 48 0.5 32.9
06:25 1021 30.15 850 25.1 11.3 52.4 48 0.8 33.5
06:30 1021 30.15 850 25.1 11.7 53 49 1.3 34.4
06:35 1021 30.15 850 25.1 11.8 53.2 50 1.7 35.1
06:40 1021 30.15 850 25.1 11.6 52.9 51 1.8 35.2
06:45 1021 30.15 850 25.1 12 53.6 48 1.3 34.4
06:50 1021 30.15 850 25.1 12.3 54.2 48 1.6 34.8
06:55 1021 30.15 850 25.1 12.9 55.1 46 1.7 35
07:00 1021 30.15 850 25.1 13.2 55.7 45 1.7 35.1
07:05 1021 30.15 850 25.1 13.4 56.1 44 1.6 34.9
07:10 1021 30.15 850 25.1 13.8 56.9 42 1.3 34.3
07:15 1021 30.15 851 25.13 14.7 58.5 41 1.5 34.7
07:20 1021 30.15 851 25.13 15 59 41 1.8 35.2
07:25 1021 30.15 851 25.13 15.7 60.2 37 1.1 34.1
07:30 1021 30.15 851 25.13 16.3 61.4 37 1.6 34.8
07:35 1021 30.15 851 25.13 16.2 61.2 38 1.9 35.4
07:40 1021 30.15 851 25.13 16.2 61.1 37 1.5 34.7
07:45 1021 30.15 851 25.13 16.4 61.5 37 1.8 35.2
07:50 1021 30.15 851 25.13 16.9 62.4 35 1.4 34.5
07:55 1021 30.15 851 25.13 17 62.6 38 2.6 36.7
08:00 1021 30.15 851 25.13 16.8 62.3 36 1.8 35.2
08:05 1021 30.15 851 25.13 17.1 62.7 35 1.7 35
08:10 1021 30.15 851 25.13 17.6 63.6 33 1.4 34.5
08:15 1021 30.15 851 25.13 17.5 63.5 38 3 37.4
08:20 1022 30.18 851 25.13 16.4 61.5 39 2.6 36.8
08:25 1022 30.18 851 25.13 16.3 61.3 39 2.3 36.1
08:30 1022 30.18 851 25.13 17.1 62.7 35 1.4 34.6
08:35 1022 30.18 851 25.13 16.6 61.9 37 1.8 35.2
08:40 1022 30.18 851 25.13 17.3 63.1 34 1.6 34.9
08:45 1022 30.18 851 25.13 17.6 63.7 35 2.1 35.8
08:50 1022 30.18 851 25.13 16.8 62.3 36 1.7 35
08:55 1022 30.18 851 25.13 17.7 63.9 34 1.6 34.9
09:00 1022 30.18 851 25.13 17.9 64.2 34 1.8 35.2
09:05 1022 30.18 851 25.13 17.1 62.9 35 1.6 34.9
09:10 1022 30.18 851 25.13 17.9 64.2 32 1.1 34.1
09:15 1022 30.18 851 25.13 18.3 64.9 31 1.1 34
09:20 1022 30.18 851 25.13 18.7 65.7 33 2 35.7
09:25 1022 30.18 851 25.13 18.7 65.6 31 1.2 34.2
09:30 1022 30.18 851 25.13 19.1 66.3 29 0.9 33.6
09:35 1022 30.18 851 25.13 18.8 65.9 29 0.8 33.4
09:40 1022 30.18 851 25.13 19.1 66.4 31 1.7 35.1
09:45 1022 30.18 851 25.13 19.1 66.3 31 1.9 35.4
09:50 1021 30.15 851 25.13 18.2 64.8 33 1.9 35.5
09:55 1021 30.15 851 25.13 18.7 65.6 33 2.1 35.8
10:00 1021 30.15 851 25.13 19 66.1 35 3.2 37.8
10:05 1021 30.15 851 25.13 18.7 65.7 32 1.9 35.4
10:10 1021 30.15 851 25.13 19.9 67.8 32 2.8 37.1
10:15 1021 30.15 851 25.13 20.3 68.5 30 2.4 36.3
10:20 1021 30.15 851 25.13 20.3 68.5 30 2.4 36.3
10:25 1021 30.15 850 25.1 20.3 68.6 30 2.5 36.5
10:30 1021 30.15 850 25.1 19.7 67.5 32 2.7 36.8
10:35 1021 30.15 850 25.1 19.4 67 29 1.3 34.3
10:40 1021 30.15 850 25.1 20.3 68.5 30 2.1 35.8
10:45 1021 30.15 850 25.1 20.8 69.4 28 1.9 35.4
10:50 1021 30.15 850 25.1 21.1 69.9 28 1.9 35.4
10:55 1021 30.15 850 25.1 20.6 69 28 1.6 34.9
11:00 1021 30.15 850 25.1 20.6 69.1 29 2.1 35.7
11:05 1021 30.15 850 25.1 20.6 69.1 29 2.3 36.1
11:10 1021 30.15 850 25.1 20.4 68.7 30 2.6 36.6
11:15 1021 30.15 850 25.1 19.8 67.6 31 2.5 36.4
11:20 1021 30.15 850 25.1 21 69.9 29 2.5 36.5
11:25 1021 30.15 850 25.1 21.9 71.4 29 3.2 37.7
11:30 1021 30.15 850 25.1 21.9 71.4 29 3.1 37.6
11:35 1021 30.15 850 25.1 22.4 72.2 28 3 37.4
11:40 1021 30.15 850 25.1 21.9 71.5 28 2.9 37.2
11:45 1021 30.15 850 25.1 21.4 70.4 28 2.3 36.2
11:50 1021 30.15 850 25.1 21.6 70.9 26 1.4 34.4
11:55 1021 30.15 850 25.1 22.5 72.4 25 1.7 35.1
12:00 1021 30.15 850 25.1 22.6 72.7 25 1.6 34.9
12:05 1021 30.15 850 25.1 22.5 72.5 25 1.5 34.7
12:10 1021 30.15 850 25.1 22.4 72.3 24 1.2 34.1
12:15 1021 30.15 850 25.1 22.8 73.1 23 0.9 33.6
12:20 1021 30.15 850 25.1 23.2 73.8 23 1.2 34.1
12:25 1021 30.15 850 25.1 23 73.4 23 1.1 34.1
12:30 1021 30.15 850 25.1 22.7 72.9 23 1 33.7
12:35 1021 30.15 850 25.1 22.7 72.8 21 -0.6 30.9
12:40 1021 30.15 850 25.1 22.8 73 24 1.6 34.8
12:45 1021 30.15 850 25.1 23.2 73.8 24 2 35.6
12:50 1021 30.15 850 25.1 23.7 74.7 23 1.3 34.4
12:55 1021 30.15 850 25.1 24.2 75.5 24 2.6 36.7
13:00 1021 30.15 850 25.1 24.4 75.9 24 2.8 37.1
13:05 1021 30.15 850 25.1 23.2 73.8 25 2.4 36.3
13:10 1021 30.15 850 25.1 23.6 74.5 23 1.8 35.2
13:15 1021 30.15 850 25.1 24.3 75.7 23 2.2 35.9
13:20 1021 30.15 850 25.1 24.7 76.5 23 2.3 36.2
13:25 1021 30.15 850 25.1 24.3 75.7 21 0.7 33.2
13:30 1020 30.12 850 25.1 23.5 74.2 22 0.5 32.9
13:35 1020 30.12 850 25.1 23.8 74.8 21 0.3 32.5
13:40 1020 30.12 850 25.1 24.5 76 18 -1.2 29.9
13:45 1020 30.12 850 25.1 23.7 74.7 21 0.2 32.4
13:50 1020 30.12 850 25.1 23.1 73.6 20 -0.5 31
13:55 1020 30.12 849 25.07 23.9 75 22 1.1 34
14:00 1020 30.12 849 25.07 24 75.2 22 1.2 34.1
14:05 1020 30.12 849 25.07 24.5 76.1 21 1 33.7
14:10 1020 30.12 849 25.07 24.7 76.4 22 1.6 34.9
14:15 1020 30.12 849 25.07 24.1 75.3 19 -0.7 30.8
14:20 1020 30.12 849 25.07 24.5 76.2 19 -0.3 31.4
14:25 1020 30.12 849 25.07 24.7 76.4 19 -0.2 31.6
14:30 1020 30.12 849 25.07 24.5 76.1 18 -1 30.2
14:35 1020 30.12 849 25.07 23.9 74.9 17 -2.4 27.7
14:40 1020 30.12 849 25.07 23.7 74.7 17 -2.6 27.3
14:45 1020 30.12 849 25.07 23.6 74.6 16 -3.8 25.1
14:50 1020 30.12 849 25.07 23.8 74.8 17 -2.9 26.8
14:55 1020 30.12 849 25.07 24.5 76 15 -3.4 25.9
15:00 1020 30.12 849 25.07 24.6 76.4 15 -3.4 25.9
15:05 1020 30.12 849 25.07 24.7 76.4 15 -3.8 25.1
15:10 1020 30.12 849 25.07 24.2 75.6 16 -2.6 27.3
15:15 1020 30.12 849 25.07 25.4 77.8 16 -2.2 28
15:20 1020 30.12 849 25.07 25.2 77.4 16 -2.6 27.4
15:25 1020 30.12 849 25.07 24.3 75.8 17 -2.4 27.6
15:30 1020 30.12 849 25.07 23.9 75 17 -2.7 27.2
15:35 1020 30.12 849 25.07 24.2 75.5 16 -3.4 25.9
15:40 1020 30.12 849 25.07 24.1 75.4 16 -3.2 26.3
15:45 1020 30.12 849 25.07 24 75.2 15 -4.1 24.7
15:50 1020 30.12 849 25.07 24.6 76.4 15 -3.6 25.5
15:55 1020 30.12 849 25.07 25.8 78.4 12 -5 23
16:00 1020 30.12 849 25.07 26.1 78.9 13 -4.5 23.9
16:05 1020 30.12 849 25.07 25 77 13 -5.2 22.7
16:10 1020 30.12 849 25.07 25.3 77.5 12 -6.2 20.9
16:15 1020 30.12 849 25.07 25 77 12 -5.8 21.6
16:20 1020 30.12 849 25.07 25.1 77.1 12 -5.6 21.9
16:25 1020 30.12 849 25.07 25 77 13 -4.8 23.4
16:30 1020 30.12 849 25.07 25.9 78.7 12 -5.1 22.8
16:35 1020 30.12 849 25.07 25.6 78 13 -5 23.1
16:40 1020 30.12 849 25.07 25 77 13 -4.9 23.3
16:45 1020 30.12 849 25.07 24.9 76.8 11 -7.6 18.4
16:50 1020 30.12 849 25.07 25.4 77.7 11 -7.1 19.3
16:55 1020 30.12 849 25.07 26.3 79.4 11 -6.2 20.8
17:00 1020 30.12 849 25.07 26.2 79.1 12 -5.7 21.8
17:05 1020 30.12 849 25.07 26.1 78.9 10 -7.4 18.6
17:10 1020 30.12 849 25.07 26.3 79.4 11 -6.5 20.3
17:15 1020 30.12 849 25.07 26.5 79.8 11 -5.7 21.7
17:20 1020 30.12 849 25.07 26.1 79 11 -6 21.3
17:25 1020 30.12 849 25.07 25.7 78.3 12 -5.5 22.1
17:30 1020 30.12 849 25.07 25.4 77.6 13 -5.1 22.8
17:35 1020 30.12 849 25.07 25.1 77.2 14 -3.8 25.2
17:40 1020 30.12 849 25.07 25.4 77.7 14 -3.7 25.4
17:45 1020 30.12 849 25.07 24.8 76.6 15 -3.5 25.7
17:50 1020 30.12 849 25.07 25.1 77.3 15 -3 26.6
17:55 1019 30.09 849 25.07 25.3 77.6 15 -2.9 26.7
18:00 1020 30.12 849 25.07 25.2 77.3 17 -1.4 29.5
18:05 1020 30.12 849 25.07 24.4 76 18 -1 30.2
18:10 1020 30.12 849 25.07 24 75.2 19 -0.8 30.6
18:15 1020 30.12 849 25.07 24.4 75.9 17 -1.8 28.8
18:20 1020 30.12 849 25.07 24.3 75.7 19 -0.7 30.7
18:25 1020 30.12 849 25.07 24.2 75.5 18 -1.3 29.6
18:30 1020 30.12 849 25.07 24.1 75.4 19 -0.8 30.5
18:35 1020 30.12 849 25.07 23.7 74.7 23 1.9 35.4
18:40 1020 30.12 849 25.07 22.5 72.5 31 4.7 40.5
18:45 1020 30.12 849 25.07 21.7 71 33 4.8 40.7
18:50 1020 30.12 849 25.07 21.3 70.3 33 4.5 40.1
18:55 1020 30.12 849 25.07 21.1 69.9 33 4.4 40
19:00 1020 30.12 850 25.1 20.9 69.7 34 4.6 40.2
19:05 1020 30.12 850 25.1 20.8 69.4 33 4.2 39.6
19:10 1020 30.12 850 25.1 20.8 69.5 34 4.5 40
19:15 1020 30.12 850 25.1 20.8 69.4 34 4.5 40
19:20 1020 30.12 850 25.1 20.7 69.2 35 4.7 40.5
19:25 1021 30.15 850 25.1 20.5 68.9 35 4.7 40.5
19:30 1021 30.15 850 25.1 20.4 68.6 36 4.8 40.6
19:35 1021 30.15 850 25.1 20.3 68.5 36 4.9 40.7
19:40 1021 30.15 850 25.1 20.1 68.1 35 4.5 40
19:45 1021 30.15 850 25.1 19.9 67.9 34 3.9 39
19:50 1021 30.15 850 25.1 19.8 67.7 35 4.1 39.4
19:55 1021 30.15 850 25.1 19.6 67.4 35 4 39.3
20:00 1021 30.15 850 25.1 19.3 66.7 36 3.9 39.1
20:05 1021 30.15 850 25.1 19.1 66.4 35 3.6 38.6
20:10 1021 30.15 850 25.1 19.1 66.4 36 3.7 38.7
20:15 1021 30.15 850 25.1 19 66.2 37 4 39.1
20:20 1021 30.15 850 25.1 18.9 65.9 37 4.1 39.5
20:25 1021 30.15 850 25.1 18.8 65.8 38 4.5 40.1
20:30 1021 30.15 850 25.1 18.8 65.8 39 4.6 40.2
20:35 1021 30.15 850 25.1 18.8 65.8 40 4.9 40.8
20:40 1021 30.15 850 25.1 18.5 65.4 42 5.4 41.7
20:45 1021 30.15 850 25.1 18.4 65.1 42 5.4 41.8
20:50 1021 30.15 850 25.1 18.4 65.1 43 5.7 42.2
20:55 1021 30.15 850 25.1 18.3 65 44 5.9 42.7
21:00 1021 30.15 850 25.1 18.3 64.9 44 6 42.8
21:05 1021 30.15 850 25.1 18.2 64.8 44 5.9 42.6
21:10 1021 30.15 850 25.1 18.2 64.7 45 6.2 43.1
21:15 1021 30.15 851 25.13 18.1 64.6 45 6.1 43.1
21:20 1021 30.15 851 25.13 17.9 64.3 46 6.3 43.3
21:25 1021 30.15 851 25.13 17.8 64 47 6.5 43.7
21:30 1021 30.15 851 25.13 17.6 63.7 48 6.5 43.7
21:35 1022 30.18 851 25.13 17.6 63.6 48 6.5 43.6
21:40 1022 30.18 851 25.13 17.5 63.5 48 6.4 43.6
21:45 1022 30.18 851 25.13 17.5 63.4 48 6.4 43.5
21:50 1022 30.18 851 25.13 17.4 63.4 47 6.3 43.3
21:55 1022 30.18 851 25.13 17.4 63.3 48 6.5 43.7
22:00 1022 30.18 851 25.13 17.2 62.9 49 6.6 43.8
22:05 1022 30.18 851 25.13 17 62.6 50 6.6 43.9
22:10 1022 30.18 851 25.13 16.9 62.3 51 6.6 44
22:15 1022 30.18 851 25.13 16.8 62.2 51 6.7 44
22:20 1022 30.18 851 25.13 16.7 62.1 51 6.6 43.9
22:25 1021 30.15 851 25.13 16.7 62 51 6.6 43.9
22:30 1021 30.15 851 25.13 16.6 61.9 51 6.6 43.9
22:35 1022 30.18 851 25.13 16.4 61.6 53 6.8 44.3
22:40 1022 30.18 851 25.13 16.3 61.3 53 6.7 44.1
22:45 1022 30.18 851 25.13 16.2 61.1 53 6.8 44.2
22:50 1022 30.18 851 25.13 16.1 61 54 7 44.5
22:55 1022 30.18 851 25.13 15.9 60.7 55 7.1 44.7
23:00 1022 30.18 851 25.13 15.8 60.5 56 7.1 44.8
23:05 1022 30.18 851 25.13 15.8 60.4 57 7.2 45
23:10 1022 30.18 851 25.13 15.7 60.3 57 7.2 45
23:15 1022 30.18 851 25.13 15.6 60.1 57 7.3 45.1
23:20 1022 30.18 851 25.13 15.5 59.9 58 7.4 45.2
23:25 1022 30.18 851 25.13 15.4 59.7 58 7.3 45.1
23:30 1022 30.18 851 25.13 15.3 59.6 58 7.2 45
23:35 1022 30.18 851 25.13 15.2 59.4 59 7.3 45.1
23:40 1022 30.18 851 25.13 15.1 59.2 58 7.1 44.8
23:45 1022 30.18 851 25.13 15.1 59.1 59 7.1 44.9
23:50 1022 30.18 851 25.13 15 58.9 59 7.1 44.9
23:55 1022 30.18 851 25.13 14.8 58.7 60 7.1 44.8
24:00 1022 30.18 851 25.13 14.7 58.5 59 6.9 44.4